sensor_id;sensor_type;location;lat;lon;timestamp;P1;durP1;ratioP1;P2;durP2;ratioP2
29814;SDS011;16708;50.426;7.664;2023-08-20T00:00:03;15.90;;;9.00;;
29814;SDS011;16708;50.426;7.664;2023-08-20T00:04:57;16.00;;;9.40;;
29814;SDS011;16708;50.426;7.664;2023-08-20T00:09:51;16.90;;;9.50;;
29814;SDS011;16708;50.426;7.664;2023-08-20T00:14:46;12.30;;;8.60;;
29814;SDS011;16708;50.426;7.664;2023-08-20T00:19:40;14.80;;;8.40;;
29814;SDS011;16708;50.426;7.664;2023-08-20T00:24:34;13.00;;;8.30;;
29814;SDS011;16708;50.426;7.664;2023-08-20T00:29:29;15.30;;;8.60;;
29814;SDS011;16708;50.426;7.664;2023-08-20T00:34:23;18.70;;;9.30;;
29814;SDS011;16708;50.426;7.664;2023-08-20T00:39:17;16.50;;;9.10;;
29814;SDS011;16708;50.426;7.664;2023-08-20T00:44:09;14.90;;;8.80;;
29814;SDS011;16708;50.426;7.664;2023-08-20T00:49:04;11.10;;;8.00;;
29814;SDS011;16708;50.426;7.664;2023-08-20T00:53:58;14.90;;;9.10;;
29814;SDS011;16708;50.426;7.664;2023-08-20T00:58:53;15.10;;;8.60;;
29814;SDS011;16708;50.426;7.664;2023-08-20T01:03:47;12.40;;;9.00;;
29814;SDS011;16708;50.426;7.664;2023-08-20T01:08:41;16.50;;;9.30;;
29814;SDS011;16708;50.426;7.664;2023-08-20T01:13:36;16.30;;;10.20;;
29814;SDS011;16708;50.426;7.664;2023-08-20T01:18:30;12.30;;;8.80;;
29814;SDS011;16708;50.426;7.664;2023-08-20T01:28:19;14.70;;;9.20;;
29814;SDS011;16708;50.426;7.664;2023-08-20T01:33:14;18.40;;;10.60;;
29814;SDS011;16708;50.426;7.664;2023-08-20T01:38:08;14.20;;;9.60;;
29814;SDS011;16708;50.426;7.664;2023-08-20T01:43:02;15.40;;;9.60;;
29814;SDS011;16708;50.426;7.664;2023-08-20T01:47:57;15.50;;;9.90;;
29814;SDS011;16708;50.426;7.664;2023-08-20T01:52:51;15.20;;;10.40;;
29814;SDS011;16708;50.426;7.664;2023-08-20T01:57:45;18.30;;;11.20;;
29814;SDS011;16708;50.426;7.664;2023-08-20T02:02:39;16.80;;;11.20;;
29814;SDS011;16708;50.426;7.664;2023-08-20T02:07:33;23.00;;;11.10;;
29814;SDS011;16708;50.426;7.664;2023-08-20T02:12:27;20.70;;;12.80;;
29814;SDS011;16708;50.426;7.664;2023-08-20T02:17:21;26.50;;;14.00;;
29814;SDS011;16708;50.426;7.664;2023-08-20T02:22:16;22.60;;;13.80;;
29814;SDS011;16708;50.426;7.664;2023-08-20T02:27:10;20.90;;;12.40;;
29814;SDS011;16708;50.426;7.664;2023-08-20T02:32:05;17.30;;;11.40;;
29814;SDS011;16708;50.426;7.664;2023-08-20T02:36:59;14.30;;;9.70;;
29814;SDS011;16708;50.426;7.664;2023-08-20T02:41:53;16.50;;;10.60;;
29814;SDS011;16708;50.426;7.664;2023-08-20T02:46:46;21.80;;;11.10;;
29814;SDS011;16708;50.426;7.664;2023-08-20T02:51:40;15.70;;;9.70;;
29814;SDS011;16708;50.426;7.664;2023-08-20T02:56:35;21.40;;;11.50;;
29814;SDS011;16708;50.426;7.664;2023-08-20T03:01:29;16.80;;;10.70;;
29814;SDS011;16708;50.426;7.664;2023-08-20T03:06:24;18.10;;;11.60;;
29814;SDS011;16708;50.426;7.664;2023-08-20T03:11:18;19.40;;;11.80;;
29814;SDS011;16708;50.426;7.664;2023-08-20T03:16:13;17.50;;;11.70;;
29814;SDS011;16708;50.426;7.664;2023-08-20T03:21:08;22.00;;;11.40;;
29814;SDS011;16708;50.426;7.664;2023-08-20T03:26:02;28.80;;;16.00;;
29814;SDS011;16708;50.426;7.664;2023-08-20T03:30:56;28.00;;;15.70;;
29814;SDS011;16708;50.426;7.664;2023-08-20T03:35:51;20.70;;;13.30;;
29814;SDS011;16708;50.426;7.664;2023-08-20T03:40:46;20.20;;;12.50;;
29814;SDS011;16708;50.426;7.664;2023-08-20T03:45:40;19.90;;;13.10;;
29814;SDS011;16708;50.426;7.664;2023-08-20T03:50:38;20.00;;;12.70;;
29814;SDS011;16708;50.426;7.664;2023-08-20T03:55:30;23.10;;;12.90;;
29814;SDS011;16708;50.426;7.664;2023-08-20T04:00:24;18.40;;;11.60;;
29814;SDS011;16708;50.426;7.664;2023-08-20T04:05:18;29.00;;;14.60;;
29814;SDS011;16708;50.426;7.664;2023-08-20T04:10:13;58.20;;;21.90;;
29814;SDS011;16708;50.426;7.664;2023-08-20T04:15:07;108.90;;;27.00;;
29814;SDS011;16708;50.426;7.664;2023-08-20T04:19:59;220.20;;;30.50;;
29814;SDS011;16708;50.426;7.664;2023-08-20T04:24:53;195.20;;;25.60;;
29814;SDS011;16708;50.426;7.664;2023-08-20T04:29:47;140.60;;;26.90;;
29814;SDS011;16708;50.426;7.664;2023-08-20T04:34:42;70.60;;;23.40;;
29814;SDS011;16708;50.426;7.664;2023-08-20T04:39:36;71.10;;;24.10;;
29814;SDS011;16708;50.426;7.664;2023-08-20T04:44:30;80.40;;;24.50;;
29814;SDS011;16708;50.426;7.664;2023-08-20T04:49:25;118.90;;;25.30;;
29814;SDS011;16708;50.426;7.664;2023-08-20T04:54:19;105.00;;;26.20;;
29814;SDS011;16708;50.426;7.664;2023-08-20T04:59:14;73.90;;;23.90;;
29814;SDS011;16708;50.426;7.664;2023-08-20T05:04:08;65.30;;;23.40;;
29814;SDS011;16708;50.426;7.664;2023-08-20T05:09:03;71.80;;;22.40;;
29814;SDS011;16708;50.426;7.664;2023-08-20T05:13:57;84.70;;;21.20;;
29814;SDS011;16708;50.426;7.664;2023-08-20T05:18:51;69.80;;;18.30;;
29814;SDS011;16708;50.426;7.664;2023-08-20T05:23:45;95.90;;;17.90;;
29814;SDS011;16708;50.426;7.664;2023-08-20T05:28:38;52.10;;;16.60;;
29814;SDS011;16708;50.426;7.664;2023-08-20T05:33:32;67.10;;;18.90;;
29814;SDS011;16708;50.426;7.664;2023-08-20T05:38:27;72.00;;;16.20;;
29814;SDS011;16708;50.426;7.664;2023-08-20T05:43:21;52.50;;;12.80;;
29814;SDS011;16708;50.426;7.664;2023-08-20T05:48:16;34.10;;;11.80;;
29814;SDS011;16708;50.426;7.664;2023-08-20T05:53:10;25.50;;;11.50;;
29814;SDS011;16708;50.426;7.664;2023-08-20T05:58:05;17.90;;;11.00;;
29814;SDS011;16708;50.426;7.664;2023-08-20T06:02:59;16.40;;;10.40;;
29814;SDS011;16708;50.426;7.664;2023-08-20T06:07:53;15.30;;;9.70;;
29814;SDS011;16708;50.426;7.664;2023-08-20T06:12:47;15.10;;;9.70;;
29814;SDS011;16708;50.426;7.664;2023-08-20T06:17:42;12.60;;;8.50;;
29814;SDS011;16708;50.426;7.664;2023-08-20T06:22:36;9.70;;;7.60;;
29814;SDS011;16708;50.426;7.664;2023-08-20T06:27:31;8.90;;;6.60;;
29814;SDS011;16708;50.426;7.664;2023-08-20T06:32:26;8.90;;;6.20;;
29814;SDS011;16708;50.426;7.664;2023-08-20T06:37:20;9.90;;;6.00;;
29814;SDS011;16708;50.426;7.664;2023-08-20T06:42:15;11.00;;;6.10;;
29814;SDS011;16708;50.426;7.664;2023-08-20T06:47:10;9.70;;;6.00;;
29814;SDS011;16708;50.426;7.664;2023-08-20T06:52:05;8.50;;;5.90;;
29814;SDS011;16708;50.426;7.664;2023-08-20T06:56:59;9.00;;;5.60;;
29814;SDS011;16708;50.426;7.664;2023-08-20T07:01:53;8.70;;;5.70;;
29814;SDS011;16708;50.426;7.664;2023-08-20T07:06:46;10.40;;;5.60;;
29814;SDS011;16708;50.426;7.664;2023-08-20T07:11:39;7.40;;;5.40;;
29814;SDS011;16708;50.426;7.664;2023-08-20T07:16:34;8.80;;;6.00;;
29814;SDS011;16708;50.426;7.664;2023-08-20T07:21:29;6.70;;;5.30;;
29814;SDS011;16708;50.426;7.664;2023-08-20T07:26:24;8.30;;;4.90;;
29814;SDS011;16708;50.426;7.664;2023-08-20T07:31:18;10.50;;;5.70;;
29814;SDS011;16708;50.426;7.664;2023-08-20T07:36:13;8.50;;;5.60;;
29814;SDS011;16708;50.426;7.664;2023-08-20T07:41:07;8.60;;;5.80;;
29814;SDS011;16708;50.426;7.664;2023-08-20T07:46:00;7.70;;;5.40;;
29814;SDS011;16708;50.426;7.664;2023-08-20T07:50:55;8.40;;;5.40;;
29814;SDS011;16708;50.426;7.664;2023-08-20T07:55:47;8.50;;;5.30;;
29814;SDS011;16708;50.426;7.664;2023-08-20T08:00:42;8.30;;;5.50;;
29814;SDS011;16708;50.426;7.664;2023-08-20T08:05:36;7.50;;;5.50;;
29814;SDS011;16708;50.426;7.664;2023-08-20T08:10:30;9.90;;;5.80;;
29814;SDS011;16708;50.426;7.664;2023-08-20T08:15:24;11.60;;;6.20;;
29814;SDS011;16708;50.426;7.664;2023-08-20T08:20:18;8.30;;;6.40;;
29814;SDS011;16708;50.426;7.664;2023-08-20T08:25:13;9.30;;;6.30;;
29814;SDS011;16708;50.426;7.664;2023-08-20T08:30:07;10.50;;;6.50;;
29814;SDS011;16708;50.426;7.664;2023-08-20T08:35:02;8.70;;;6.80;;
29814;SDS011;16708;50.426;7.664;2023-08-20T08:39:56;11.50;;;7.50;;
29814;SDS011;16708;50.426;7.664;2023-08-20T08:44:51;10.30;;;7.00;;
29814;SDS011;16708;50.426;7.664;2023-08-20T08:49:45;11.90;;;7.40;;
29814;SDS011;16708;50.426;7.664;2023-08-20T08:54:40;14.90;;;8.50;;
29814;SDS011;16708;50.426;7.664;2023-08-20T08:59:34;11.00;;;8.40;;
29814;SDS011;16708;50.426;7.664;2023-08-20T09:04:29;13.20;;;7.90;;
29814;SDS011;16708;50.426;7.664;2023-08-20T09:09:24;10.70;;;7.70;;
29814;SDS011;16708;50.426;7.664;2023-08-20T09:14:16;11.80;;;7.60;;
29814;SDS011;16708;50.426;7.664;2023-08-20T09:19:10;12.10;;;8.80;;
29814;SDS011;16708;50.426;7.664;2023-08-20T09:24:05;13.60;;;7.70;;
29814;SDS011;16708;50.426;7.664;2023-08-20T09:29:00;11.70;;;8.20;;
29814;SDS011;16708;50.426;7.664;2023-08-20T09:33:55;12.00;;;7.90;;
29814;SDS011;16708;50.426;7.664;2023-08-20T09:38:48;11.30;;;8.20;;
29814;SDS011;16708;50.426;7.664;2023-08-20T09:43:43;9.90;;;7.40;;
29814;SDS011;16708;50.426;7.664;2023-08-20T09:48:40;10.00;;;7.00;;
29814;SDS011;16708;50.426;7.664;2023-08-20T09:53:35;9.20;;;7.30;;
29814;SDS011;16708;50.426;7.664;2023-08-20T09:58:31;9.20;;;7.40;;
29814;SDS011;16708;50.426;7.664;2023-08-20T10:03:26;10.20;;;7.30;;
29814;SDS011;16708;50.426;7.664;2023-08-20T10:08:22;9.40;;;7.60;;
29814;SDS011;16708;50.426;7.664;2023-08-20T10:13:16;8.00;;;7.20;;
29814;SDS011;16708;50.426;7.664;2023-08-20T10:18:08;10.30;;;7.20;;
29814;SDS011;16708;50.426;7.664;2023-08-20T10:27:57;9.10;;;7.40;;
29814;SDS011;16708;50.426;7.664;2023-08-20T10:32:53;7.80;;;7.00;;
29814;SDS011;16708;50.426;7.664;2023-08-20T10:37:48;8.10;;;7.20;;
29814;SDS011;16708;50.426;7.664;2023-08-20T10:42:43;7.30;;;6.60;;
29814;SDS011;16708;50.426;7.664;2023-08-20T10:47:38;8.60;;;6.40;;
29814;SDS011;16708;50.426;7.664;2023-08-20T10:52:32;7.50;;;6.20;;
29814;SDS011;16708;50.426;7.664;2023-08-20T10:57:27;8.90;;;5.80;;
29814;SDS011;16708;50.426;7.664;2023-08-20T11:02:22;6.40;;;5.80;;
29814;SDS011;16708;50.426;7.664;2023-08-20T11:07:17;6.90;;;5.90;;
29814;SDS011;16708;50.426;7.664;2023-08-20T11:12:09;7.40;;;5.80;;
29814;SDS011;16708;50.426;7.664;2023-08-20T11:17:04;6.10;;;5.50;;
29814;SDS011;16708;50.426;7.664;2023-08-20T11:21:58;5.60;;;5.10;;
29814;SDS011;16708;50.426;7.664;2023-08-20T11:26:53;8.70;;;5.90;;
29814;SDS011;16708;50.426;7.664;2023-08-20T11:31:47;6.50;;;5.80;;
29814;SDS011;16708;50.426;7.664;2023-08-20T11:36:41;6.00;;;5.20;;
29814;SDS011;16708;50.426;7.664;2023-08-20T11:41:35;5.80;;;5.20;;
29814;SDS011;16708;50.426;7.664;2023-08-20T11:46:28;5.80;;;5.20;;
29814;SDS011;16708;50.426;7.664;2023-08-20T11:51:24;6.70;;;5.00;;
29814;SDS011;16708;50.426;7.664;2023-08-20T11:56:18;6.20;;;5.60;;
29814;SDS011;16708;50.426;7.664;2023-08-20T12:01:09;5.80;;;5.30;;
29814;SDS011;16708;50.426;7.664;2023-08-20T12:10:58;6.00;;;5.10;;
29814;SDS011;16708;50.426;7.664;2023-08-20T12:15:51;6.50;;;5.30;;
29814;SDS011;16708;50.426;7.664;2023-08-20T12:20:46;5.10;;;4.70;;
29814;SDS011;16708;50.426;7.664;2023-08-20T12:25:40;5.20;;;4.70;;
29814;SDS011;16708;50.426;7.664;2023-08-20T12:30:35;6.10;;;5.20;;
29814;SDS011;16708;50.426;7.664;2023-08-20T12:35:28;5.70;;;5.10;;
29814;SDS011;16708;50.426;7.664;2023-08-20T12:40:22;6.40;;;4.80;;
29814;SDS011;16708;50.426;7.664;2023-08-20T12:45:18;4.90;;;4.50;;
29814;SDS011;16708;50.426;7.664;2023-08-20T12:50:12;5.00;;;4.60;;
29814;SDS011;16708;50.426;7.664;2023-08-20T12:55:05;4.80;;;4.30;;
29814;SDS011;16708;50.426;7.664;2023-08-20T12:59:58;5.20;;;4.20;;
29814;SDS011;16708;50.426;7.664;2023-08-20T13:04:52;5.30;;;4.50;;
29814;SDS011;16708;50.426;7.664;2023-08-20T13:09:42;6.90;;;4.20;;
29814;SDS011;16708;50.426;7.664;2023-08-20T13:14:34;4.90;;;4.10;;
29814;SDS011;16708;50.426;7.664;2023-08-20T13:19:30;5.90;;;4.00;;
29814;SDS011;16708;50.426;7.664;2023-08-20T13:24:26;5.30;;;4.20;;
29814;SDS011;16708;50.426;7.664;2023-08-20T13:29:21;5.10;;;4.20;;
29814;SDS011;16708;50.426;7.664;2023-08-20T13:34:16;4.20;;;3.80;;
29814;SDS011;16708;50.426;7.664;2023-08-20T13:39:11;5.00;;;4.00;;
29814;SDS011;16708;50.426;7.664;2023-08-20T13:44:06;4.30;;;4.00;;
29814;SDS011;16708;50.426;7.664;2023-08-20T13:49:00;4.50;;;4.10;;
29814;SDS011;16708;50.426;7.664;2023-08-20T13:53:55;4.70;;;4.20;;
29814;SDS011;16708;50.426;7.664;2023-08-20T13:58:49;5.50;;;5.00;;
29814;SDS011;16708;50.426;7.664;2023-08-20T14:03:43;5.00;;;4.60;;
29814;SDS011;16708;50.426;7.664;2023-08-20T14:08:37;5.20;;;4.70;;
29814;SDS011;16708;50.426;7.664;2023-08-20T14:13:30;5.30;;;4.90;;
29814;SDS011;16708;50.426;7.664;2023-08-20T14:18:23;5.40;;;4.90;;
29814;SDS011;16708;50.426;7.664;2023-08-20T14:23:18;5.50;;;5.00;;
29814;SDS011;16708;50.426;7.664;2023-08-20T14:28:11;5.20;;;4.70;;
29814;SDS011;16708;50.426;7.664;2023-08-20T14:33:05;5.90;;;5.30;;
29814;SDS011;16708;50.426;7.664;2023-08-20T14:38:00;7.30;;;5.80;;
29814;SDS011;16708;50.426;7.664;2023-08-20T14:42:54;6.10;;;5.60;;
29814;SDS011;16708;50.426;7.664;2023-08-20T14:47:47;4.60;;;4.20;;
29814;SDS011;16708;50.426;7.664;2023-08-20T14:52:39;4.20;;;3.60;;
29814;SDS011;16708;50.426;7.664;2023-08-20T14:57:33;4.50;;;4.00;;
29814;SDS011;16708;50.426;7.664;2023-08-20T15:02:27;5.20;;;4.30;;
29814;SDS011;16708;50.426;7.664;2023-08-20T15:07:22;9.00;;;7.30;;
29814;SDS011;16708;50.426;7.664;2023-08-20T15:12:15;6.30;;;4.50;;
29814;SDS011;16708;50.426;7.664;2023-08-20T15:17:10;5.40;;;4.40;;
29814;SDS011;16708;50.426;7.664;2023-08-20T15:22:05;4.50;;;4.10;;
29814;SDS011;16708;50.426;7.664;2023-08-20T15:26:59;5.20;;;4.50;;
29814;SDS011;16708;50.426;7.664;2023-08-20T15:31:53;5.70;;;4.20;;
29814;SDS011;16708;50.426;7.664;2023-08-20T15:36:47;6.30;;;4.60;;
29814;SDS011;16708;50.426;7.664;2023-08-20T15:41:41;5.20;;;4.40;;
29814;SDS011;16708;50.426;7.664;2023-08-20T15:46:35;4.90;;;4.40;;
29814;SDS011;16708;50.426;7.664;2023-08-20T15:51:29;4.60;;;4.20;;
29814;SDS011;16708;50.426;7.664;2023-08-20T15:56:23;5.20;;;3.80;;
29814;SDS011;16708;50.426;7.664;2023-08-20T16:01:17;4.70;;;4.30;;
29814;SDS011;16708;50.426;7.664;2023-08-20T16:06:11;5.10;;;4.00;;
29814;SDS011;16708;50.426;7.664;2023-08-20T16:11:06;5.50;;;4.80;;
29814;SDS011;16708;50.426;7.664;2023-08-20T16:15:59;7.10;;;5.50;;
29814;SDS011;16708;50.426;7.664;2023-08-20T16:20:53;4.70;;;4.30;;
29814;SDS011;16708;50.426;7.664;2023-08-20T16:25:47;5.20;;;4.30;;
29814;SDS011;16708;50.426;7.664;2023-08-20T16:30:42;5.40;;;4.20;;
29814;SDS011;16708;50.426;7.664;2023-08-20T16:35:36;4.90;;;4.20;;
29814;SDS011;16708;50.426;7.664;2023-08-20T16:40:30;4.50;;;4.10;;
29814;SDS011;16708;50.426;7.664;2023-08-20T16:45:24;6.00;;;4.10;;
29814;SDS011;16708;50.426;7.664;2023-08-20T16:50:19;5.30;;;4.50;;
29814;SDS011;16708;50.426;7.664;2023-08-20T16:55:12;4.20;;;3.80;;
29814;SDS011;16708;50.426;7.664;2023-08-20T17:00:07;5.20;;;4.00;;
29814;SDS011;16708;50.426;7.664;2023-08-20T17:05:01;4.70;;;3.80;;
29814;SDS011;16708;50.426;7.664;2023-08-20T17:09:55;4.50;;;3.70;;
29814;SDS011;16708;50.426;7.664;2023-08-20T17:14:46;4.00;;;3.60;;
29814;SDS011;16708;50.426;7.664;2023-08-20T17:19:40;4.50;;;3.80;;
29814;SDS011;16708;50.426;7.664;2023-08-20T17:24:34;4.60;;;3.60;;
29814;SDS011;16708;50.426;7.664;2023-08-20T17:29:28;5.10;;;4.20;;
29814;SDS011;16708;50.426;7.664;2023-08-20T17:34:22;5.20;;;3.80;;
29814;SDS011;16708;50.426;7.664;2023-08-20T17:39:16;6.10;;;3.80;;
29814;SDS011;16708;50.426;7.664;2023-08-20T17:44:10;5.10;;;4.00;;
29814;SDS011;16708;50.426;7.664;2023-08-20T17:49:04;4.60;;;3.80;;
29814;SDS011;16708;50.426;7.664;2023-08-20T17:53:57;5.30;;;4.10;;
29814;SDS011;16708;50.426;7.664;2023-08-20T17:58:50;7.10;;;4.50;;
29814;SDS011;16708;50.426;7.664;2023-08-20T18:03:43;6.30;;;4.70;;
29814;SDS011;16708;50.426;7.664;2023-08-20T18:08:37;7.50;;;4.60;;
29814;SDS011;16708;50.426;7.664;2023-08-20T18:13:29;7.60;;;5.30;;
29814;SDS011;16708;50.426;7.664;2023-08-20T18:18:23;6.20;;;5.00;;
29814;SDS011;16708;50.426;7.664;2023-08-20T18:23:17;9.00;;;5.30;;
29814;SDS011;16708;50.426;7.664;2023-08-20T18:28:10;9.30;;;5.80;;
29814;SDS011;16708;50.426;7.664;2023-08-20T18:33:04;6.30;;;5.30;;
29814;SDS011;16708;50.426;7.664;2023-08-20T18:37:58;10.40;;;6.00;;
29814;SDS011;16708;50.426;7.664;2023-08-20T18:42:52;8.50;;;5.70;;
29814;SDS011;16708;50.426;7.664;2023-08-20T18:47:46;7.70;;;6.60;;
29814;SDS011;16708;50.426;7.664;2023-08-20T18:52:38;11.00;;;7.00;;
29814;SDS011;16708;50.426;7.664;2023-08-20T18:57:32;11.70;;;7.30;;
29814;SDS011;16708;50.426;7.664;2023-08-20T19:02:26;8.70;;;7.10;;
29814;SDS011;16708;50.426;7.664;2023-08-20T19:07:21;12.60;;;7.40;;
29814;SDS011;16708;50.426;7.664;2023-08-20T19:12:15;9.10;;;8.20;;
29814;SDS011;16708;50.426;7.664;2023-08-20T19:17:09;11.60;;;8.20;;
29814;SDS011;16708;50.426;7.664;2023-08-20T19:22:03;10.60;;;8.00;;
29814;SDS011;16708;50.426;7.664;2023-08-20T19:26:57;12.10;;;8.50;;
29814;SDS011;16708;50.426;7.664;2023-08-20T19:31:51;12.60;;;8.50;;
29814;SDS011;16708;50.426;7.664;2023-08-20T19:36:45;10.90;;;8.00;;
29814;SDS011;16708;50.426;7.664;2023-08-20T19:41:39;12.50;;;9.00;;
29814;SDS011;16708;50.426;7.664;2023-08-20T19:46:33;10.90;;;8.40;;
29814;SDS011;16708;50.426;7.664;2023-08-20T19:51:27;11.20;;;8.70;;
29814;SDS011;16708;50.426;7.664;2023-08-20T19:56:21;12.30;;;9.00;;
29814;SDS011;16708;50.426;7.664;2023-08-20T20:01:16;12.40;;;8.70;;
29814;SDS011;16708;50.426;7.664;2023-08-20T20:06:09;12.30;;;8.70;;
29814;SDS011;16708;50.426;7.664;2023-08-20T20:11:03;12.90;;;8.80;;
29814;SDS011;16708;50.426;7.664;2023-08-20T20:15:57;10.50;;;8.10;;
29814;SDS011;16708;50.426;7.664;2023-08-20T20:20:50;10.90;;;8.20;;
29814;SDS011;16708;50.426;7.664;2023-08-20T20:25:45;11.70;;;8.50;;
29814;SDS011;16708;50.426;7.664;2023-08-20T20:30:38;17.70;;;9.40;;
29814;SDS011;16708;50.426;7.664;2023-08-20T20:35:32;11.20;;;8.30;;
29814;SDS011;16708;50.426;7.664;2023-08-20T20:40:26;10.60;;;8.30;;
29814;SDS011;16708;50.426;7.664;2023-08-20T20:45:20;12.70;;;8.10;;
29814;SDS011;16708;50.426;7.664;2023-08-20T20:50:14;12.30;;;8.00;;
29814;SDS011;16708;50.426;7.664;2023-08-20T20:55:09;10.60;;;8.20;;
29814;SDS011;16708;50.426;7.664;2023-08-20T21:00:00;12.00;;;8.10;;
29814;SDS011;16708;50.426;7.664;2023-08-20T21:04:54;9.80;;;7.70;;
29814;SDS011;16708;50.426;7.664;2023-08-20T21:09:48;11.70;;;8.90;;
29814;SDS011;16708;50.426;7.664;2023-08-20T21:14:42;11.10;;;8.30;;
29814;SDS011;16708;50.426;7.664;2023-08-20T21:19:37;12.70;;;8.40;;
29814;SDS011;16708;50.426;7.664;2023-08-20T21:24:31;10.60;;;8.40;;
29814;SDS011;16708;50.426;7.664;2023-08-20T21:29:25;11.50;;;7.80;;
29814;SDS011;16708;50.426;7.664;2023-08-20T21:34:20;9.30;;;8.10;;
29814;SDS011;16708;50.426;7.664;2023-08-20T21:39:14;12.70;;;8.60;;
29814;SDS011;16708;50.426;7.664;2023-08-20T21:44:08;15.60;;;9.40;;
29814;SDS011;16708;50.426;7.664;2023-08-20T21:49:02;10.00;;;8.60;;
29814;SDS011;16708;50.426;7.664;2023-08-20T21:53:55;10.50;;;8.50;;
29814;SDS011;16708;50.426;7.664;2023-08-20T21:58:49;12.90;;;8.40;;
29814;SDS011;16708;50.426;7.664;2023-08-20T22:08:37;12.90;;;9.30;;
29814;SDS011;16708;50.426;7.664;2023-08-20T22:13:30;11.00;;;8.70;;
29814;SDS011;16708;50.426;7.664;2023-08-20T22:18:27;14.80;;;9.50;;
29814;SDS011;16708;50.426;7.664;2023-08-20T22:23:17;12.50;;;8.90;;
29814;SDS011;16708;50.426;7.664;2023-08-20T22:28:11;14.50;;;8.80;;
29814;SDS011;16708;50.426;7.664;2023-08-20T22:33:05;14.50;;;9.20;;
29814;SDS011;16708;50.426;7.664;2023-08-20T22:37:59;12.60;;;9.30;;
29814;SDS011;16708;50.426;7.664;2023-08-20T22:42:53;12.90;;;8.90;;
29814;SDS011;16708;50.426;7.664;2023-08-20T22:47:47;12.60;;;9.10;;
29814;SDS011;16708;50.426;7.664;2023-08-20T22:52:41;15.30;;;9.10;;
29814;SDS011;16708;50.426;7.664;2023-08-20T22:57:35;14.90;;;9.20;;
29814;SDS011;16708;50.426;7.664;2023-08-20T23:02:28;12.10;;;8.60;;
29814;SDS011;16708;50.426;7.664;2023-08-20T23:07:23;13.80;;;8.50;;
29814;SDS011;16708;50.426;7.664;2023-08-20T23:12:17;11.90;;;8.60;;
29814;SDS011;16708;50.426;7.664;2023-08-20T23:17:11;13.60;;;9.70;;
29814;SDS011;16708;50.426;7.664;2023-08-20T23:22:05;11.40;;;8.70;;
29814;SDS011;16708;50.426;7.664;2023-08-20T23:26:59;10.40;;;8.60;;
29814;SDS011;16708;50.426;7.664;2023-08-20T23:31:53;10.80;;;8.40;;
29814;SDS011;16708;50.426;7.664;2023-08-20T23:36:48;12.00;;;8.90;;
29814;SDS011;16708;50.426;7.664;2023-08-20T23:41:42;11.70;;;8.50;;
29814;SDS011;16708;50.426;7.664;2023-08-20T23:46:34;14.20;;;8.90;;
29814;SDS011;16708;50.426;7.664;2023-08-20T23:51:29;11.90;;;8.70;;
29814;SDS011;16708;50.426;7.664;2023-08-20T23:56:23;13.00;;;9.00;;
